createdAt,value
2019-02-02T00:01:58.573Z,1.72
2019-02-02T00:04:26.654Z,1.74
2019-02-02T00:06:54.667Z,1.60
2019-02-02T00:09:22.947Z,1.71
2019-02-02T00:11:51.721Z,1.21
2019-02-02T00:14:19.721Z,1.68
2019-02-02T00:16:48.163Z,1.53
2019-02-02T00:19:16.409Z,1.65
2019-02-02T00:21:44.714Z,1.50
2019-02-02T00:24:13.500Z,1.59
2019-02-02T00:26:42.235Z,1.57
2019-02-02T00:29:12.141Z,1.57
2019-02-02T00:31:42.205Z,1.58
2019-02-02T00:34:10.760Z,1.59
2019-02-02T00:36:39.147Z,1.59
2019-02-02T00:39:10.334Z,1.46
2019-02-02T00:41:39.471Z,1.59
2019-02-02T00:44:08.613Z,1.46
2019-02-02T00:46:37.208Z,1.61
2019-02-02T00:49:06.100Z,1.66
2019-02-02T00:51:34.176Z,1.71
2019-02-02T00:54:02.871Z,1.71
2019-02-02T00:56:31.133Z,1.77
2019-02-02T00:58:59.617Z,1.78
2019-02-02T01:01:28.416Z,1.78
2019-02-02T01:03:56.695Z,1.79
2019-02-02T01:06:24.782Z,1.81
2019-02-02T01:11:32.000Z,1.85
2019-02-02T01:14:00.261Z,1.86
2019-02-02T01:16:29.038Z,1.74
2019-02-02T01:18:58.842Z,1.86
2019-02-02T01:21:27.323Z,1.71
2019-02-02T01:23:56.803Z,1.84
2019-02-02T01:26:26.178Z,1.83
2019-02-02T01:28:55.117Z,1.81
2019-02-02T01:31:25.301Z,1.82
2019-02-02T01:33:53.827Z,1.85
2019-02-02T01:36:22.600Z,1.87
2019-02-02T01:38:50.977Z,1.87
2019-02-02T01:41:19.257Z,1.89
2019-02-02T01:43:48.828Z,1.91
2019-02-02T01:46:17.308Z,1.92
2019-02-02T01:48:45.876Z,1.91
2019-02-02T01:51:15.009Z,1.90
2019-02-02T01:53:43.287Z,1.90
2019-02-02T01:56:11.673Z,1.86
2019-02-02T01:58:39.610Z,1.86
2019-02-02T02:01:07.905Z,1.87
2019-02-02T02:03:36.724Z,1.85
2019-02-02T02:06:05.092Z,1.86
2019-02-02T02:08:33.996Z,1.82
